sensor_id;sensor_type;location;lat;lon;timestamp;P1;durP1;ratioP1;P2;durP2;ratioP2
9852;SDS011;4965;43.238;27.864;2022-09-28T00:01:27;2.72;;;1.73;;
9852;SDS011;4965;43.238;27.864;2022-09-28T00:03:55;1.50;;;1.40;;
9852;SDS011;4965;43.238;27.864;2022-09-28T00:06:24;2.35;;;1.67;;
9852;SDS011;4965;43.238;27.864;2022-09-28T00:08:52;3.78;;;1.58;;
9852;SDS011;4965;43.238;27.864;2022-09-28T00:11:20;2.17;;;1.40;;
9852;SDS011;4965;43.238;27.864;2022-09-28T00:13:48;1.70;;;1.60;;
9852;SDS011;4965;43.238;27.864;2022-09-28T00:16:17;3.28;;;1.48;;
9852;SDS011;4965;43.238;27.864;2022-09-28T00:18:46;1.67;;;1.50;;
9852;SDS011;4965;43.238;27.864;2022-09-28T00:21:15;5.95;;;1.67;;
9852;SDS011;4965;43.238;27.864;2022-09-28T00:23:45;6.53;;;1.60;;
9852;SDS011;4965;43.238;27.864;2022-09-28T00:26:30;3.00;;;1.83;;
9852;SDS011;4965;43.238;27.864;2022-09-28T00:29:00;1.90;;;1.70;;
9852;SDS011;4965;43.238;27.864;2022-09-28T00:31:28;3.17;;;1.60;;
9852;SDS011;4965;43.238;27.864;2022-09-28T00:33:56;2.05;;;1.75;;
9852;SDS011;4965;43.238;27.864;2022-09-28T00:36:26;2.35;;;1.63;;
9852;SDS011;4965;43.238;27.864;2022-09-28T00:38:53;2.08;;;1.80;;
9852;SDS011;4965;43.238;27.864;2022-09-28T00:41:22;3.72;;;1.85;;
9852;SDS011;4965;43.238;27.864;2022-09-28T00:43:50;2.22;;;2.03;;
9852;SDS011;4965;43.238;27.864;2022-09-28T00:46:18;2.25;;;2.05;;
9852;SDS011;4965;43.238;27.864;2022-09-28T00:48:59;5.03;;;2.40;;
9852;SDS011;4965;43.238;27.864;2022-09-28T00:51:30;5.38;;;2.40;;
9852;SDS011;4965;43.238;27.864;2022-09-28T00:53:57;4.70;;;2.40;;
9852;SDS011;4965;43.238;27.864;2022-09-28T00:56:27;2.40;;;2.20;;
9852;SDS011;4965;43.238;27.864;2022-09-28T00:58:58;4.10;;;2.38;;
9852;SDS011;4965;43.238;27.864;2022-09-28T01:01:28;4.82;;;3.17;;
9852;SDS011;4965;43.238;27.864;2022-09-28T01:03:56;1.98;;;1.88;;
9852;SDS011;4965;43.238;27.864;2022-09-28T01:06:27;3.95;;;2.13;;
9852;SDS011;4965;43.238;27.864;2022-09-28T01:08:58;2.72;;;1.73;;
9852;SDS011;4965;43.238;27.864;2022-09-28T01:11:30;2.53;;;2.00;;
9852;SDS011;4965;43.238;27.864;2022-09-28T01:13:58;11.90;;;2.78;;
9852;SDS011;4965;43.238;27.864;2022-09-28T01:16:28;2.88;;;2.45;;
9852;SDS011;4965;43.238;27.864;2022-09-28T01:19:04;3.50;;;2.58;;
9852;SDS011;4965;43.238;27.864;2022-09-28T01:21:58;4.55;;;2.83;;
9852;SDS011;4965;43.238;27.864;2022-09-28T01:24:38;7.88;;;5.47;;
9852;SDS011;4965;43.238;27.864;2022-09-28T01:27:13;5.15;;;3.50;;
9852;SDS011;4965;43.238;27.864;2022-09-28T01:29:51;4.78;;;3.17;;
9852;SDS011;4965;43.238;27.864;2022-09-28T01:32:24;3.75;;;3.13;;
9852;SDS011;4965;43.238;27.864;2022-09-28T01:35:02;4.55;;;2.88;;
9852;SDS011;4965;43.238;27.864;2022-09-28T01:37:35;2.83;;;2.45;;
9852;SDS011;4965;43.238;27.864;2022-09-28T01:40:07;3.00;;;2.80;;
9852;SDS011;4965;43.238;27.864;2022-09-28T01:42:38;4.90;;;2.78;;
9852;SDS011;4965;43.238;27.864;2022-09-28T01:45:11;4.57;;;3.30;;
9852;SDS011;4965;43.238;27.864;2022-09-28T01:47:42;4.80;;;3.42;;
9852;SDS011;4965;43.238;27.864;2022-09-28T01:50:13;6.22;;;3.28;;
9852;SDS011;4965;43.238;27.864;2022-09-28T01:52:44;3.72;;;2.95;;
9852;SDS011;4965;43.238;27.864;2022-09-28T01:55:17;7.85;;;2.70;;
9852;SDS011;4965;43.238;27.864;2022-09-28T01:57:54;3.35;;;2.60;;
9852;SDS011;4965;43.238;27.864;2022-09-28T02:00:24;2.90;;;2.58;;
9852;SDS011;4965;43.238;27.864;2022-09-28T02:02:54;3.38;;;2.63;;
9852;SDS011;4965;43.238;27.864;2022-09-28T02:05:33;2.42;;;2.20;;
9852;SDS011;4965;43.238;27.864;2022-09-28T02:08:06;4.60;;;2.25;;
9852;SDS011;4965;43.238;27.864;2022-09-28T02:10:37;2.30;;;2.10;;
9852;SDS011;4965;43.238;27.864;2022-09-28T02:13:09;2.58;;;2.30;;
9852;SDS011;4965;43.238;27.864;2022-09-28T02:15:42;6.15;;;2.35;;
9852;SDS011;4965;43.238;27.864;2022-09-28T02:18:17;3.53;;;2.08;;
9852;SDS011;4965;43.238;27.864;2022-09-28T02:20:45;6.95;;;2.05;;
9852;SDS011;4965;43.238;27.864;2022-09-28T02:23:17;5.15;;;2.20;;
9852;SDS011;4965;43.238;27.864;2022-09-28T02:25:49;6.22;;;2.53;;
9852;SDS011;4965;43.238;27.864;2022-09-28T02:28:20;2.55;;;2.20;;
9852;SDS011;4965;43.238;27.864;2022-09-28T02:30:47;2.45;;;2.10;;
9852;SDS011;4965;43.238;27.864;2022-09-28T02:33:15;2.72;;;2.50;;
9852;SDS011;4965;43.238;27.864;2022-09-28T02:35:46;4.88;;;2.60;;
9852;SDS011;4965;43.238;27.864;2022-09-28T02:38:13;6.38;;;2.58;;
9852;SDS011;4965;43.238;27.864;2022-09-28T02:40:41;4.38;;;2.47;;
9852;SDS011;4965;43.238;27.864;2022-09-28T02:43:15;4.70;;;2.90;;
9852;SDS011;4965;43.238;27.864;2022-09-28T02:45:55;8.30;;;2.88;;
9852;SDS011;4965;43.238;27.864;2022-09-28T02:48:41;7.70;;;2.70;;
9852;SDS011;4965;43.238;27.864;2022-09-28T02:51:20;2.53;;;2.28;;
9852;SDS011;4965;43.238;27.864;2022-09-28T02:54:07;2.63;;;2.33;;
9852;SDS011;4965;43.238;27.864;2022-09-28T02:56:48;5.47;;;2.50;;
9852;SDS011;4965;43.238;27.864;2022-09-28T02:59:29;3.58;;;3.00;;
9852;SDS011;4965;43.238;27.864;2022-09-28T03:02:09;3.17;;;2.70;;
9852;SDS011;4965;43.238;27.864;2022-09-28T03:04:44;7.40;;;2.97;;
9852;SDS011;4965;43.238;27.864;2022-09-28T03:07:23;5.03;;;3.25;;
9852;SDS011;4965;43.238;27.864;2022-09-28T03:09:55;7.45;;;3.42;;
9852;SDS011;4965;43.238;27.864;2022-09-28T03:12:26;7.20;;;3.15;;
9852;SDS011;4965;43.238;27.864;2022-09-28T03:15:07;6.47;;;3.97;;
9852;SDS011;4965;43.238;27.864;2022-09-28T03:17:37;6.18;;;3.90;;
9852;SDS011;4965;43.238;27.864;2022-09-28T03:20:05;7.85;;;4.00;;
9852;SDS011;4965;43.238;27.864;2022-09-28T03:22:32;7.22;;;3.80;;
9852;SDS011;4965;43.238;27.864;2022-09-28T03:24:59;9.95;;;6.18;;
9852;SDS011;4965;43.238;27.864;2022-09-28T03:27:26;8.00;;;6.40;;
9852;SDS011;4965;43.238;27.864;2022-09-28T03:29:53;14.35;;;5.82;;
9852;SDS011;4965;43.238;27.864;2022-09-28T03:32:20;14.10;;;6.65;;
9852;SDS011;4965;43.238;27.864;2022-09-28T03:34:48;17.17;;;7.07;;
9852;SDS011;4965;43.238;27.864;2022-09-28T03:37:15;13.10;;;7.00;;
9852;SDS011;4965;43.238;27.864;2022-09-28T03:39:41;18.27;;;8.90;;
9852;SDS011;4965;43.238;27.864;2022-09-28T03:42:08;21.52;;;8.77;;
9852;SDS011;4965;43.238;27.864;2022-09-28T03:44:35;21.42;;;8.98;;
9852;SDS011;4965;43.238;27.864;2022-09-28T03:47:02;14.30;;;7.95;;
9852;SDS011;4965;43.238;27.864;2022-09-28T03:49:29;13.05;;;7.38;;
9852;SDS011;4965;43.238;27.864;2022-09-28T03:51:57;16.52;;;6.35;;
9852;SDS011;4965;43.238;27.864;2022-09-28T03:54:24;16.63;;;6.88;;
9852;SDS011;4965;43.238;27.864;2022-09-28T03:56:51;16.10;;;5.85;;
9852;SDS011;4965;43.238;27.864;2022-09-28T03:59:17;14.68;;;5.22;;
9852;SDS011;4965;43.238;27.864;2022-09-28T04:01:45;13.00;;;4.60;;
9852;SDS011;4965;43.238;27.864;2022-09-28T04:04:14;16.08;;;5.47;;
9852;SDS011;4965;43.238;27.864;2022-09-28T04:06:41;6.60;;;4.40;;
9852;SDS011;4965;43.238;27.864;2022-09-28T04:09:10;6.40;;;3.78;;
9852;SDS011;4965;43.238;27.864;2022-09-28T04:11:37;8.40;;;4.18;;
9852;SDS011;4965;43.238;27.864;2022-09-28T04:14:03;17.15;;;4.53;;
9852;SDS011;4965;43.238;27.864;2022-09-28T04:16:30;14.10;;;4.32;;
9852;SDS011;4965;43.238;27.864;2022-09-28T04:18:57;18.35;;;4.78;;
9852;SDS011;4965;43.238;27.864;2022-09-28T04:21:24;12.93;;;4.70;;
9852;SDS011;4965;43.238;27.864;2022-09-28T04:23:51;16.20;;;4.32;;
9852;SDS011;4965;43.238;27.864;2022-09-28T04:26:20;8.77;;;4.38;;
9852;SDS011;4965;43.238;27.864;2022-09-28T04:28:49;10.25;;;4.40;;
9852;SDS011;4965;43.238;27.864;2022-09-28T04:31:37;7.13;;;3.92;;
9852;SDS011;4965;43.238;27.864;2022-09-28T04:34:04;10.68;;;3.92;;
9852;SDS011;4965;43.238;27.864;2022-09-28T04:36:31;19.17;;;4.40;;
9852;SDS011;4965;43.238;27.864;2022-09-28T04:38:58;19.52;;;4.68;;
9852;SDS011;4965;43.238;27.864;2022-09-28T04:41:27;16.98;;;4.32;;
9852;SDS011;4965;43.238;27.864;2022-09-28T04:43:53;15.23;;;4.28;;
9852;SDS011;4965;43.238;27.864;2022-09-28T04:46:20;28.65;;;4.50;;
9852;SDS011;4965;43.238;27.864;2022-09-28T04:48:47;13.07;;;3.97;;
9852;SDS011;4965;43.238;27.864;2022-09-28T04:51:14;17.48;;;4.20;;
9852;SDS011;4965;43.238;27.864;2022-09-28T04:53:41;12.20;;;3.78;;
9852;SDS011;4965;43.238;27.864;2022-09-28T04:56:09;5.72;;;2.83;;
9852;SDS011;4965;43.238;27.864;2022-09-28T04:58:39;10.93;;;2.88;;
9852;SDS011;4965;43.238;27.864;2022-09-28T05:01:07;14.98;;;3.10;;
9852;SDS011;4965;43.238;27.864;2022-09-28T05:03:37;9.48;;;4.32;;
9852;SDS011;4965;43.238;27.864;2022-09-28T05:06:04;27.13;;;3.92;;
9852;SDS011;4965;43.238;27.864;2022-09-28T05:08:32;27.25;;;4.85;;
9852;SDS011;4965;43.238;27.864;2022-09-28T05:10:59;35.00;;;7.07;;
9852;SDS011;4965;43.238;27.864;2022-09-28T05:13:28;42.47;;;6.70;;
9852;SDS011;4965;43.238;27.864;2022-09-28T05:15:58;29.83;;;7.00;;
9852;SDS011;4965;43.238;27.864;2022-09-28T05:18:25;26.25;;;5.97;;
9852;SDS011;4965;43.238;27.864;2022-09-28T05:20:52;24.08;;;5.60;;
9852;SDS011;4965;43.238;27.864;2022-09-28T05:23:19;26.10;;;6.05;;
9852;SDS011;4965;43.238;27.864;2022-09-28T05:25:46;20.73;;;5.75;;
9852;SDS011;4965;43.238;27.864;2022-09-28T05:28:12;26.70;;;5.72;;
9852;SDS011;4965;43.238;27.864;2022-09-28T05:30:39;21.13;;;5.65;;
9852;SDS011;4965;43.238;27.864;2022-09-28T05:33:08;14.07;;;4.78;;
9852;SDS011;4965;43.238;27.864;2022-09-28T05:35:35;16.45;;;5.53;;
9852;SDS011;4965;43.238;27.864;2022-09-28T05:38:02;10.60;;;5.18;;
9852;SDS011;4965;43.238;27.864;2022-09-28T05:40:30;14.07;;;5.65;;
9852;SDS011;4965;43.238;27.864;2022-09-28T05:42:59;12.50;;;5.82;;
9852;SDS011;4965;43.238;27.864;2022-09-28T05:45:27;8.55;;;5.65;;
9852;SDS011;4965;43.238;27.864;2022-09-28T05:47:54;11.85;;;6.97;;
9852;SDS011;4965;43.238;27.864;2022-09-28T05:50:23;12.30;;;7.82;;
9852;SDS011;4965;43.238;27.864;2022-09-28T05:52:57;11.75;;;8.30;;
9852;SDS011;4965;43.238;27.864;2022-09-28T05:55:25;15.50;;;9.05;;
9852;SDS011;4965;43.238;27.864;2022-09-28T05:57:52;14.65;;;8.93;;
9852;SDS011;4965;43.238;27.864;2022-09-28T06:00:19;16.20;;;9.02;;
9852;SDS011;4965;43.238;27.864;2022-09-28T06:02:54;14.10;;;7.85;;
9852;SDS011;4965;43.238;27.864;2022-09-28T06:05:23;16.42;;;8.63;;
9852;SDS011;4965;43.238;27.864;2022-09-28T06:07:50;14.80;;;8.57;;
9852;SDS011;4965;43.238;27.864;2022-09-28T06:10:18;19.30;;;9.02;;
9852;SDS011;4965;43.238;27.864;2022-09-28T06:12:44;12.27;;;8.80;;
9852;SDS011;4965;43.238;27.864;2022-09-28T06:15:13;17.00;;;9.20;;
9852;SDS011;4965;43.238;27.864;2022-09-28T06:17:41;15.60;;;9.35;;
9852;SDS011;4965;43.238;27.864;2022-09-28T06:20:08;14.00;;;9.18;;
9852;SDS011;4965;43.238;27.864;2022-09-28T06:22:37;13.55;;;9.82;;
9852;SDS011;4965;43.238;27.864;2022-09-28T06:25:05;19.70;;;9.38;;
9852;SDS011;4965;43.238;27.864;2022-09-28T06:27:32;20.63;;;8.77;;
9852;SDS011;4965;43.238;27.864;2022-09-28T06:30:00;12.15;;;8.60;;
9852;SDS011;4965;43.238;27.864;2022-09-28T06:32:27;15.25;;;8.27;;
9852;SDS011;4965;43.238;27.864;2022-09-28T06:34:54;10.85;;;8.00;;
9852;SDS011;4965;43.238;27.864;2022-09-28T06:37:21;11.30;;;7.88;;
9852;SDS011;4965;43.238;27.864;2022-09-28T06:39:51;11.40;;;8.30;;
9852;SDS011;4965;43.238;27.864;2022-09-28T06:42:18;11.10;;;7.95;;
9852;SDS011;4965;43.238;27.864;2022-09-28T06:44:45;12.45;;;7.03;;
9852;SDS011;4965;43.238;27.864;2022-09-28T06:47:12;8.60;;;4.72;;
9852;SDS011;4965;43.238;27.864;2022-09-28T06:49:39;10.55;;;5.47;;
9852;SDS011;4965;43.238;27.864;2022-09-28T06:52:06;10.20;;;4.90;;
9852;SDS011;4965;43.238;27.864;2022-09-28T06:54:33;8.48;;;4.90;;
9852;SDS011;4965;43.238;27.864;2022-09-28T06:57:01;3.97;;;2.97;;
9852;SDS011;4965;43.238;27.864;2022-09-28T06:59:28;4.75;;;3.10;;
9852;SDS011;4965;43.238;27.864;2022-09-28T07:01:55;9.68;;;3.13;;
9852;SDS011;4965;43.238;27.864;2022-09-28T07:04:22;3.38;;;2.72;;
9852;SDS011;4965;43.238;27.864;2022-09-28T07:06:54;6.10;;;3.05;;
9852;SDS011;4965;43.238;27.864;2022-09-28T07:09:21;4.63;;;2.92;;
9852;SDS011;4965;43.238;27.864;2022-09-28T07:11:48;3.67;;;2.67;;
9852;SDS011;4965;43.238;27.864;2022-09-28T07:14:18;7.40;;;2.88;;
9852;SDS011;4965;43.238;27.864;2022-09-28T07:16:48;3.60;;;2.65;;
9852;SDS011;4965;43.238;27.864;2022-09-28T07:19:15;7.72;;;2.95;;
9852;SDS011;4965;43.238;27.864;2022-09-28T07:21:42;5.25;;;3.47;;
9852;SDS011;4965;43.238;27.864;2022-09-28T07:24:09;5.03;;;3.55;;
9852;SDS011;4965;43.238;27.864;2022-09-28T07:26:38;5.43;;;4.07;;
9852;SDS011;4965;43.238;27.864;2022-09-28T07:29:05;6.80;;;3.65;;
9852;SDS011;4965;43.238;27.864;2022-09-28T07:31:33;10.15;;;4.55;;
9852;SDS011;4965;43.238;27.864;2022-09-28T07:34:00;7.95;;;4.45;;
9852;SDS011;4965;43.238;27.864;2022-09-28T07:36:27;9.75;;;4.70;;
9852;SDS011;4965;43.238;27.864;2022-09-28T07:38:54;6.95;;;4.53;;
9852;SDS011;4965;43.238;27.864;2022-09-28T07:41:21;13.23;;;5.07;;
9852;SDS011;4965;43.238;27.864;2022-09-28T07:43:56;9.88;;;5.53;;
9852;SDS011;4965;43.238;27.864;2022-09-28T07:46:30;6.28;;;4.82;;
9852;SDS011;4965;43.238;27.864;2022-09-28T07:48:58;10.85;;;4.85;;
9852;SDS011;4965;43.238;27.864;2022-09-28T07:51:28;7.78;;;4.38;;
9852;SDS011;4965;43.238;27.864;2022-09-28T07:53:55;10.60;;;4.38;;
9852;SDS011;4965;43.238;27.864;2022-09-28T07:56:22;9.55;;;4.03;;
9852;SDS011;4965;43.238;27.864;2022-09-28T07:58:49;7.63;;;4.22;;
9852;SDS011;4965;43.238;27.864;2022-09-28T08:01:16;7.22;;;3.75;;
9852;SDS011;4965;43.238;27.864;2022-09-28T08:03:44;9.90;;;4.60;;
9852;SDS011;4965;43.238;27.864;2022-09-28T08:06:14;18.83;;;5.72;;
9852;SDS011;4965;43.238;27.864;2022-09-28T08:08:42;10.45;;;4.75;;
9852;SDS011;4965;43.238;27.864;2022-09-28T08:11:10;11.75;;;4.20;;
9852;SDS011;4965;43.238;27.864;2022-09-28T08:13:37;6.85;;;3.45;;
9852;SDS011;4965;43.238;27.864;2022-09-28T08:16:04;4.28;;;3.00;;
9852;SDS011;4965;43.238;27.864;2022-09-28T08:18:33;6.80;;;3.35;;
9852;SDS011;4965;43.238;27.864;2022-09-28T08:21:00;9.38;;;3.03;;
9852;SDS011;4965;43.238;27.864;2022-09-28T08:23:46;10.25;;;2.90;;
9852;SDS011;4965;43.238;27.864;2022-09-28T08:26:14;7.30;;;3.08;;
9852;SDS011;4965;43.238;27.864;2022-09-28T08:28:41;9.82;;;2.67;;
9852;SDS011;4965;43.238;27.864;2022-09-28T08:31:09;6.72;;;2.88;;
9852;SDS011;4965;43.238;27.864;2022-09-28T08:33:36;6.30;;;2.72;;
9852;SDS011;4965;43.238;27.864;2022-09-28T08:36:03;7.82;;;3.00;;
9852;SDS011;4965;43.238;27.864;2022-09-28T08:38:30;4.45;;;2.70;;
9852;SDS011;4965;43.238;27.864;2022-09-28T08:41:04;3.35;;;2.63;;
9852;SDS011;4965;43.238;27.864;2022-09-28T08:46:48;11.23;;;3.47;;
9852;SDS011;4965;43.238;27.864;2022-09-28T08:49:20;8.38;;;2.80;;
9852;SDS011;4965;43.238;27.864;2022-09-28T08:51:53;5.97;;;2.08;;
9852;SDS011;4965;43.238;27.864;2022-09-28T08:54:29;5.25;;;2.05;;
9852;SDS011;4965;43.238;27.864;2022-09-28T08:57:05;7.85;;;2.08;;
9852;SDS011;4965;43.238;27.864;2022-09-28T08:59:45;11.38;;;2.00;;
9852;SDS011;4965;43.238;27.864;2022-09-28T09:02:17;5.28;;;2.22;;
9852;SDS011;4965;43.238;27.864;2022-09-28T09:04:49;5.40;;;2.00;;
9852;SDS011;4965;43.238;27.864;2022-09-28T09:07:24;4.30;;;1.98;;
9852;SDS011;4965;43.238;27.864;2022-09-28T09:10:10;6.20;;;1.90;;
9852;SDS011;4965;43.238;27.864;2022-09-28T09:12:46;5.30;;;2.55;;
9852;SDS011;4965;43.238;27.864;2022-09-28T09:15:26;7.90;;;3.30;;
9852;SDS011;4965;43.238;27.864;2022-09-28T09:18:13;5.72;;;3.65;;
9852;SDS011;4965;43.238;27.864;2022-09-28T09:20:49;4.38;;;3.50;;
9852;SDS011;4965;43.238;27.864;2022-09-28T09:23:23;4.05;;;2.70;;
9852;SDS011;4965;43.238;27.864;2022-09-28T09:26:00;7.63;;;2.70;;
9852;SDS011;4965;43.238;27.864;2022-09-28T09:28:40;5.38;;;3.05;;
9852;SDS011;4965;43.238;27.864;2022-09-28T09:31:29;8.40;;;3.13;;
9852;SDS011;4965;43.238;27.864;2022-09-28T09:34:13;6.03;;;2.67;;
9852;SDS011;4965;43.238;27.864;2022-09-28T09:36:57;4.72;;;2.30;;
9852;SDS011;4965;43.238;27.864;2022-09-28T09:39:39;8.45;;;2.40;;
9852;SDS011;4965;43.238;27.864;2022-09-28T09:42:20;7.10;;;2.70;;
9852;SDS011;4965;43.238;27.864;2022-09-28T09:45:03;7.60;;;2.50;;
9852;SDS011;4965;43.238;27.864;2022-09-28T09:47:40;7.30;;;1.98;;
9852;SDS011;4965;43.238;27.864;2022-09-28T09:50:16;9.65;;;2.45;;
9852;SDS011;4965;43.238;27.864;2022-09-28T09:52:54;4.88;;;1.73;;
9852;SDS011;4965;43.238;27.864;2022-09-28T09:55:26;5.13;;;1.98;;
9852;SDS011;4965;43.238;27.864;2022-09-28T09:57:59;5.78;;;2.13;;
9852;SDS011;4965;43.238;27.864;2022-09-28T10:00:36;3.35;;;1.80;;
9852;SDS011;4965;43.238;27.864;2022-09-28T10:03:05;3.20;;;1.95;;
9852;SDS011;4965;43.238;27.864;2022-09-28T10:05:41;5.32;;;1.73;;
9852;SDS011;4965;43.238;27.864;2022-09-28T10:08:14;5.25;;;2.38;;
9852;SDS011;4965;43.238;27.864;2022-09-28T10:10:47;2.83;;;1.85;;
9852;SDS011;4965;43.238;27.864;2022-09-28T10:13:16;6.90;;;2.20;;
9852;SDS011;4965;43.238;27.864;2022-09-28T10:15:44;4.60;;;1.90;;
9852;SDS011;4965;43.238;27.864;2022-09-28T10:18:14;8.25;;;2.08;;
9852;SDS011;4965;43.238;27.864;2022-09-28T10:20:45;3.60;;;1.88;;
9852;SDS011;4965;43.238;27.864;2022-09-28T10:23:12;5.38;;;2.80;;
9852;SDS011;4965;43.238;27.864;2022-09-28T10:25:46;3.35;;;2.20;;
9852;SDS011;4965;43.238;27.864;2022-09-28T10:28:18;4.40;;;1.67;;
9852;SDS011;4965;43.238;27.864;2022-09-28T10:30:53;10.15;;;2.00;;
9852;SDS011;4965;43.238;27.864;2022-09-28T10:33:26;3.47;;;3.10;;
9852;SDS011;4965;43.238;27.864;2022-09-28T10:35:55;2.30;;;1.67;;
9852;SDS011;4965;43.238;27.864;2022-09-28T10:38:24;5.57;;;2.05;;
9852;SDS011;4965;43.238;27.864;2022-09-28T10:40:52;3.80;;;1.83;;
9852;SDS011;4965;43.238;27.864;2022-09-28T10:43:21;4.10;;;2.10;;
9852;SDS011;4965;43.238;27.864;2022-09-28T10:46:02;4.28;;;1.80;;
9852;SDS011;4965;43.238;27.864;2022-09-28T10:48:34;3.33;;;1.45;;
9852;SDS011;4965;43.238;27.864;2022-09-28T10:51:12;3.97;;;1.55;;
9852;SDS011;4965;43.238;27.864;2022-09-28T10:53:39;3.88;;;1.90;;
9852;SDS011;4965;43.238;27.864;2022-09-28T10:56:06;3.90;;;2.45;;
9852;SDS011;4965;43.238;27.864;2022-09-28T10:58:44;2.80;;;1.70;;
9852;SDS011;4965;43.238;27.864;2022-09-28T11:01:13;2.35;;;1.52;;
9852;SDS011;4965;43.238;27.864;2022-09-28T11:03:48;1.83;;;1.60;;
9852;SDS011;4965;43.238;27.864;2022-09-28T11:06:24;7.20;;;1.50;;
9852;SDS011;4965;43.238;27.864;2022-09-28T11:08:53;3.72;;;1.60;;
9852;SDS011;4965;43.238;27.864;2022-09-28T11:11:22;3.75;;;1.58;;
9852;SDS011;4965;43.238;27.864;2022-09-28T11:13:50;2.85;;;1.40;;
9852;SDS011;4965;43.238;27.864;2022-09-28T11:16:25;7.53;;;1.60;;
9852;SDS011;4965;43.238;27.864;2022-09-28T11:18:54;5.45;;;1.65;;
9852;SDS011;4965;43.238;27.864;2022-09-28T11:21:22;2.90;;;1.52;;
9852;SDS011;4965;43.238;27.864;2022-09-28T11:23:55;4.68;;;1.95;;
9852;SDS011;4965;43.238;27.864;2022-09-28T11:26:26;2.60;;;1.67;;
9852;SDS011;4965;43.238;27.864;2022-09-28T11:29:01;3.60;;;1.67;;
9852;SDS011;4965;43.238;27.864;2022-09-28T11:31:30;2.75;;;1.67;;
9852;SDS011;4965;43.238;27.864;2022-09-28T11:34:02;5.53;;;4.43;;
9852;SDS011;4965;43.238;27.864;2022-09-28T11:36:43;6.75;;;3.72;;
9852;SDS011;4965;43.238;27.864;2022-09-28T11:39:30;3.25;;;1.60;;
9852;SDS011;4965;43.238;27.864;2022-09-28T11:42:09;2.60;;;1.30;;
9852;SDS011;4965;43.238;27.864;2022-09-28T11:44:47;5.22;;;1.60;;
9852;SDS011;4965;43.238;27.864;2022-09-28T11:50:16;6.80;;;2.10;;
9852;SDS011;4965;43.238;27.864;2022-09-28T11:52:50;3.88;;;1.70;;
9852;SDS011;4965;43.238;27.864;2022-09-28T11:55:23;2.97;;;1.60;;
9852;SDS011;4965;43.238;27.864;2022-09-28T11:57:59;4.93;;;1.30;;
9852;SDS011;4965;43.238;27.864;2022-09-28T12:00:28;3.90;;;1.58;;
9852;SDS011;4965;43.238;27.864;2022-09-28T12:03:04;2.65;;;1.60;;
9852;SDS011;4965;43.238;27.864;2022-09-28T12:05:36;3.05;;;1.40;;
9852;SDS011;4965;43.238;27.864;2022-09-28T12:08:07;5.90;;;1.60;;
9852;SDS011;4965;43.238;27.864;2022-09-28T12:10:40;4.03;;;1.50;;
9852;SDS011;4965;43.238;27.864;2022-09-28T12:13:13;4.68;;;1.30;;
9852;SDS011;4965;43.238;27.864;2022-09-28T12:15:47;6.20;;;1.58;;
9852;SDS011;4965;43.238;27.864;2022-09-28T12:18:21;4.15;;;2.00;;
9852;SDS011;4965;43.238;27.864;2022-09-28T12:20:51;3.00;;;1.50;;
9852;SDS011;4965;43.238;27.864;2022-09-28T12:23:24;2.47;;;1.33;;
9852;SDS011;4965;43.238;27.864;2022-09-28T12:25:58;6.97;;;1.65;;
9852;SDS011;4965;43.238;27.864;2022-09-28T12:28:30;5.50;;;1.42;;
9852;SDS011;4965;43.238;27.864;2022-09-28T12:31:04;6.35;;;1.50;;
9852;SDS011;4965;43.238;27.864;2022-09-28T12:33:39;4.53;;;2.05;;
9852;SDS011;4965;43.238;27.864;2022-09-28T12:36:19;6.50;;;2.97;;
9852;SDS011;4965;43.238;27.864;2022-09-28T12:39:02;5.38;;;2.40;;
9852;SDS011;4965;43.238;27.864;2022-09-28T12:41:42;4.80;;;1.70;;
9852;SDS011;4965;43.238;27.864;2022-09-28T12:44:22;3.85;;;2.30;;
9852;SDS011;4965;43.238;27.864;2022-09-28T12:47:02;7.47;;;2.20;;
9852;SDS011;4965;43.238;27.864;2022-09-28T12:49:48;8.30;;;2.38;;
9852;SDS011;4965;43.238;27.864;2022-09-28T12:52:26;7.03;;;2.25;;
9852;SDS011;4965;43.238;27.864;2022-09-28T12:57:58;5.68;;;1.83;;
9852;SDS011;4965;43.238;27.864;2022-09-28T13:00:33;1.98;;;1.38;;
9852;SDS011;4965;43.238;27.864;2022-09-28T13:03:14;3.72;;;1.58;;
9852;SDS011;4965;43.238;27.864;2022-09-28T13:08:59;2.33;;;1.40;;
9852;SDS011;4965;43.238;27.864;2022-09-28T13:11:41;6.75;;;1.73;;
9852;SDS011;4965;43.238;27.864;2022-09-28T13:17:27;2.53;;;1.58;;
9852;SDS011;4965;43.238;27.864;2022-09-28T13:20:10;2.85;;;1.38;;
9852;SDS011;4965;43.238;27.864;2022-09-28T13:22:47;3.70;;;1.40;;
9852;SDS011;4965;43.238;27.864;2022-09-28T13:25:22;4.28;;;1.30;;
9852;SDS011;4965;43.238;27.864;2022-09-28T13:27:54;4.43;;;1.60;;
9852;SDS011;4965;43.238;27.864;2022-09-28T13:30:25;4.60;;;1.60;;
9852;SDS011;4965;43.238;27.864;2022-09-28T13:32:52;7.38;;;1.98;;
9852;SDS011;4965;43.238;27.864;2022-09-28T13:35:22;5.30;;;3.10;;
9852;SDS011;4965;43.238;27.864;2022-09-28T13:43:41;7.07;;;3.20;;
9852;SDS011;4965;43.238;27.864;2022-09-28T13:46:20;8.10;;;2.63;;
9852;SDS011;4965;43.238;27.864;2022-09-28T13:48:57;8.95;;;2.75;;
9852;SDS011;4965;43.238;27.864;2022-09-28T13:51:36;4.40;;;3.10;;
9852;SDS011;4965;43.238;27.864;2022-09-28T13:54:17;8.55;;;3.53;;
9852;SDS011;4965;43.238;27.864;2022-09-28T13:56:58;14.27;;;4.10;;
9852;SDS011;4965;43.238;27.864;2022-09-28T13:59:41;5.10;;;2.80;;
9852;SDS011;4965;43.238;27.864;2022-09-28T14:02:28;7.68;;;3.13;;
9852;SDS011;4965;43.238;27.864;2022-09-28T14:05:01;9.70;;;3.50;;
9852;SDS011;4965;43.238;27.864;2022-09-28T14:10:23;10.35;;;3.10;;
9852;SDS011;4965;43.238;27.864;2022-09-28T14:16:25;9.48;;;3.22;;
9852;SDS011;4965;43.238;27.864;2022-09-28T14:18:56;6.38;;;3.45;;
9852;SDS011;4965;43.238;27.864;2022-09-28T14:21:51;11.30;;;3.08;;
9852;SDS011;4965;43.238;27.864;2022-09-28T14:24:38;10.68;;;3.58;;
9852;SDS011;4965;43.238;27.864;2022-09-28T14:27:31;9.23;;;3.90;;
9852;SDS011;4965;43.238;27.864;2022-09-28T14:30:15;8.80;;;4.22;;
9852;SDS011;4965;43.238;27.864;2022-09-28T14:32:47;9.13;;;4.20;;
9852;SDS011;4965;43.238;27.864;2022-09-28T14:35:21;9.85;;;5.00;;
9852;SDS011;4965;43.238;27.864;2022-09-28T14:37:54;9.10;;;4.00;;
9852;SDS011;4965;43.238;27.864;2022-09-28T14:40:55;12.18;;;4.63;;
9852;SDS011;4965;43.238;27.864;2022-09-28T14:52:56;6.25;;;4.40;;
9852;SDS011;4965;43.238;27.864;2022-09-28T14:55:30;11.20;;;4.13;;
9852;SDS011;4965;43.238;27.864;2022-09-28T14:58:04;11.65;;;5.32;;
9852;SDS011;4965;43.238;27.864;2022-09-28T15:00:41;10.68;;;3.92;;
9852;SDS011;4965;43.238;27.864;2022-09-28T15:03:11;10.88;;;4.72;;
9852;SDS011;4965;43.238;27.864;2022-09-28T15:05:41;7.07;;;4.00;;
9852;SDS011;4965;43.238;27.864;2022-09-28T15:08:11;10.32;;;4.90;;
9852;SDS011;4965;43.238;27.864;2022-09-28T15:10:39;7.50;;;4.32;;
9852;SDS011;4965;43.238;27.864;2022-09-28T15:13:19;7.07;;;3.65;;
9852;SDS011;4965;43.238;27.864;2022-09-28T15:15:50;5.53;;;4.05;;
9852;SDS011;4965;43.238;27.864;2022-09-28T15:18:32;13.32;;;4.90;;
9852;SDS011;4965;43.238;27.864;2022-09-28T15:21:22;13.30;;;4.70;;
9852;SDS011;4965;43.238;27.864;2022-09-28T15:24:28;10.88;;;4.03;;
9852;SDS011;4965;43.238;27.864;2022-09-28T15:27:00;9.98;;;4.20;;
9852;SDS011;4965;43.238;27.864;2022-09-28T15:29:28;5.18;;;3.95;;
9852;SDS011;4965;43.238;27.864;2022-09-28T15:31:57;15.45;;;4.45;;
9852;SDS011;4965;43.238;27.864;2022-09-28T15:34:29;11.18;;;4.45;;
9852;SDS011;4965;43.238;27.864;2022-09-28T15:37:16;8.10;;;4.20;;
9852;SDS011;4965;43.238;27.864;2022-09-28T15:39:46;25.27;;;5.70;;
9852;SDS011;4965;43.238;27.864;2022-09-28T15:42:14;7.80;;;4.50;;
9852;SDS011;4965;43.238;27.864;2022-09-28T15:44:42;9.85;;;4.40;;
9852;SDS011;4965;43.238;27.864;2022-09-28T15:47:26;12.20;;;5.07;;
9852;SDS011;4965;43.238;27.864;2022-09-28T15:49:58;8.25;;;5.00;;
9852;SDS011;4965;43.238;27.864;2022-09-28T15:52:28;9.75;;;4.60;;
9852;SDS011;4965;43.238;27.864;2022-09-28T15:55:00;10.38;;;4.97;;
9852;SDS011;4965;43.238;27.864;2022-09-28T15:57:33;10.13;;;4.43;;
9852;SDS011;4965;43.238;27.864;2022-09-28T16:00:03;9.93;;;4.70;;
9852;SDS011;4965;43.238;27.864;2022-09-28T16:02:32;13.43;;;4.45;;
9852;SDS011;4965;43.238;27.864;2022-09-28T16:05:02;8.73;;;4.70;;